WetterOnline ( https://www.wetteronline.ch )

Wetter aktuell Hoyerswerda

Aktuelles Wetter: Hoyerswerda (116m)

6-stündlich | Neueste Meldungen
Ortszeit Temperatur Wetter
Sa, 06.06. 20:00 18.0° C wolkig
Sa, 06.06. 14:00 16.6° C bewölkt
Sa, 06.06. 8:00 12.0° C bedeckt
Sa, 06.06. 2:00 11.8° C wolkig
Fr, 05.06. 20:00 15.2° C wolkenlos
Fr, 05.06. 14:00 16.6° C bewölkt
Fr, 05.06. 8:00 12.8° C bedeckt
Fr, 05.06. 2:00 15.1° C bewölkt
Ortszeit Temperatur Wetter
Sa, 06.06. 23:10 13.9° C leicht bewölkt
Sa, 06.06. 23:00 14.0° C leicht bewölkt
Sa, 06.06. 22:50 14.0° C leicht bewölkt
Sa, 06.06. 22:40 14.1° C wolkenlos
Sa, 06.06. 22:30 14.5° C wolkenlos
Sa, 06.06. 22:20 14.5° C wolkenlos
Sa, 06.06. 22:00 15.6° C leicht bewölkt
Sa, 06.06. 21:30 16.3° C wolkig
Sa, 06.06. 21:00 16.7° C leicht bewölkt
Sa, 06.06. 20:30 17.3° C wolkig
Sa, 06.06. 20:00 18.0° C wolkig
Ortszeit Relative Feuchte Sichtweite
Sa, 06.06. 20:00 58% >70 km
Sa, 06.06. 14:00 57% 65 km
Sa, 06.06. 8:00 69% 60 km
Sa, 06.06. 2:00 79% >70 km
Fr, 05.06. 20:00 66% >70 km
Fr, 05.06. 14:00 58% >70 km
Fr, 05.06. 8:00 88% 45 km
Fr, 05.06. 2:00 94% 45 km
Ortszeit Relative Feuchte Sichtweite
Sa, 06.06. 23:10 78% -
Sa, 06.06. 23:00 77% 65 km
Sa, 06.06. 22:50 77% -
Sa, 06.06. 22:40 76% -
Sa, 06.06. 22:30 74% >70 km
Sa, 06.06. 22:20 74% -
Sa, 06.06. 22:00 70% 65 km
Sa, 06.06. 21:30 67% 65 km
Sa, 06.06. 21:00 65% >70 km
Sa, 06.06. 20:30 62% 65 km
Sa, 06.06. 20:00 58% >70 km
Ortszeit Niederschlagsmenge Niederschlagsart
Sa, 06.06. 20:00 0.1 l/m2 in 12 Std. -
Sa, 06.06. 14:00 0.1 l/m2 in 6 Std. Regen
Sa, 06.06. 8:00 0.1 l/m2 in 12 Std. -
Sa, 06.06. 2:00 0.1 l/m2 in 6 Std. Regen
Fr, 05.06. 20:00 0.6 l/m2 in 12 Std. Regen
Fr, 05.06. 14:00 0.5 l/m2 in 6 Std. Regen
Fr, 05.06. 8:00 1 l/m2 in 12 Std. Regen
Fr, 05.06. 2:00 1 l/m2 in 6 Std. Regen
Ortszeit Niederschlagsmenge Niederschlagsart
Sa, 06.06. 23:10 keine Meldung -
Sa, 06.06. 23:00 0.0 l/m2 in 1 Std. -
Sa, 06.06. 22:50 keine Meldung -
Sa, 06.06. 22:40 keine Meldung -
Sa, 06.06. 22:30 0.0 l/m2 in 1 Std. -
Sa, 06.06. 22:20 keine Meldung -
Sa, 06.06. 22:00 0.0 l/m2 in 1 Std. -
Sa, 06.06. 21:30 0.0 l/m2 in 1 Std. -
Sa, 06.06. 21:00 0.0 l/m2 in 1 Std. -
Sa, 06.06. 20:30 0.0 l/m2 in 1 Std. -
Sa, 06.06. 20:00 0.0 l/m2 in 1 Std. -
Ortszeit Stärke Spitze Richtung
km/h Bft. km/h Grad Sektor
Sa, 06.06. 20:00 13 3 35 180° S
Sa, 06.06. 14:00 15 3 37 200° S
Sa, 06.06. 8:00 9 2 35 220° SW
Sa, 06.06. 2:00 14 3 36 230° SW
Fr, 05.06. 20:00 15 3 43 180° S
Fr, 05.06. 14:00 18 3 36 230° SW
Fr, 05.06. 8:00 15 3 31 270° W
Fr, 05.06. 2:00 11 2 18 230° SW
Ortszeit Stärke Spitze Richtung
km/h Bft. km/h Grad Sektor
Sa, 06.06. 23:10 7 2 - 170° S
Sa, 06.06. 23:00 7 2 14 170° S
Sa, 06.06. 22:50 7 2 - 170° S
Sa, 06.06. 22:40 7 2 - 180° S
Sa, 06.06. 22:30 7 2 11 180° S
Sa, 06.06. 22:20 7 2 - 180° S
Sa, 06.06. 22:00 7 2 17 190° S
Sa, 06.06. 21:30 11 2 18 180° S
Sa, 06.06. 21:00 11 2 25 180° S
Sa, 06.06. 20:30 11 2 25 180° S
Sa, 06.06. 20:00 13 3 28 180° S
Ortszeit Untergrenze Bedeckung Gattung
total tief tief mittel hoch
Sa, 06.06. 20:00 1500 m 7/8 5/8 - - -
Sa, 06.06. 14:00 1140 m 8/8 7/8 - - -
Sa, 06.06. 8:00 3000 m 8/8 8/8 - - -
Sa, 06.06. 2:00 2700 m 6/8 2/8 - - -
Fr, 05.06. 20:00 - 0/8 0/8 - - -
Fr, 05.06. 14:00 990 m 7/8 7/8 - - -
Fr, 05.06. 8:00 870 m 8/8 8/8 - - -
Fr, 05.06. 2:00 390 m 8/8 7/8 - - -
Ortszeit Bedeckungsgrad in Achtel und Wolkenuntergrenze
Sa, 06.06. 23:10 3(1440m)
Sa, 06.06. 23:00 2(1410m)
Sa, 06.06. 22:50 2(1410m)
Sa, 06.06. 22:40 keine Wolken
Sa, 06.06. 22:30 keine Wolken
Sa, 06.06. 22:20 keine Wolken
Sa, 06.06. 22:00 3(1500m)
Sa, 06.06. 21:30 5(1500m)
Sa, 06.06. 21:00 1(2100m) 4(9000m) 4(9000m)
Sa, 06.06. 20:30 7(9000m) 4(8700m) 8(9000m)
Sa, 06.06. 20:00 5(1500m) 5(1800m) 7(8700m)
Ortszeit Luftdruck NN (hPa) Tendenz (hPa in 3 Std.)
Sa, 06.06. 20:00 1004 + 0,5
Sa, 06.06. 14:00 1004 + 1,0
Sa, 06.06. 8:00 1003 + 1,2
Sa, 06.06. 2:00 999 + 2,5
Fr, 05.06. 20:00 996 - 0,4
Fr, 05.06. 14:00 997 + 0,4
Fr, 05.06. 8:00 995 + 1,7
Fr, 05.06. 2:00 993 - 0,3
Ortszeit Luftdruck NN (hPa) Tendenz (hPa in 3 Std.)
Sa, 06.06. 23:10 1006 keine Meldung
Sa, 06.06. 23:00 1006 + 1,6
Sa, 06.06. 22:50 1006 keine Meldung
Sa, 06.06. 22:40 1006 keine Meldung
Sa, 06.06. 22:30 1006 + 1,5
Sa, 06.06. 22:20 1006 keine Meldung
Sa, 06.06. 22:00 1005 + 1,2
Sa, 06.06. 21:30 1005 + 0,8
Sa, 06.06. 21:00 1005 + 0,7
Sa, 06.06. 20:30 1004 + 0,5
Sa, 06.06. 20:00 1004 + 0,5
Ortszeit Schneehöhe (cm)
Sa, 06.06. 20:00 -
Sa, 06.06. 14:00 -
Sa, 06.06. 8:00 -
Sa, 06.06. 2:00 -
Fr, 05.06. 20:00 -
Fr, 05.06. 14:00 -
Fr, 05.06. 8:00 -
Fr, 05.06. 2:00 -
Ortszeit Schneehöhe (cm)
Sa, 06.06. 23:10 -
Sa, 06.06. 23:00 -
Sa, 06.06. 22:50 -
Sa, 06.06. 22:40 -
Sa, 06.06. 22:30 -
Sa, 06.06. 22:20 -
Sa, 06.06. 22:00 -
Sa, 06.06. 21:30 -
Sa, 06.06. 21:00 -
Sa, 06.06. 20:30 -
Sa, 06.06. 20:00 -
Link zu dieser Seite / Seite empfehlen

Das Wetter in ...